sensor_id;sensor_type;location;lat;lon;timestamp;pressure;altitude;pressure_sealevel;temperature;humidity
13661;BME280;6903;49.480;11.102;2023-03-14T00:00:34;96150.94;;;9.68;100.00
13661;BME280;6903;49.480;11.102;2023-03-14T00:02:59;96154.25;;;9.70;100.00
13661;BME280;6903;49.480;11.102;2023-03-14T00:05:25;96153.25;;;9.71;100.00
13661;BME280;6903;49.480;11.102;2023-03-14T00:07:50;96158.50;;;9.71;100.00
13661;BME280;6903;49.480;11.102;2023-03-14T00:10:15;96154.41;;;9.69;100.00
13661;BME280;6903;49.480;11.102;2023-03-14T00:12:41;96163.94;;;9.70;100.00
13661;BME280;6903;49.480;11.102;2023-03-14T00:15:08;96158.84;;;9.68;100.00
13661;BME280;6903;49.480;11.102;2023-03-14T00:17:34;96156.88;;;9.70;100.00
13661;BME280;6903;49.480;11.102;2023-03-14T00:20:00;96159.34;;;9.72;100.00
13661;BME280;6903;49.480;11.102;2023-03-14T00:22:31;96155.59;;;9.74;100.00
13661;BME280;6903;49.480;11.102;2023-03-14T00:24:57;96169.56;;;9.75;100.00
13661;BME280;6903;49.480;11.102;2023-03-14T00:27:22;96179.44;;;9.81;100.00
13661;BME280;6903;49.480;11.102;2023-03-14T00:29:47;96185.84;;;9.78;100.00
13661;BME280;6903;49.480;11.102;2023-03-14T00:32:12;96185.03;;;9.78;100.00
13661;BME280;6903;49.480;11.102;2023-03-14T00:34:38;96176.16;;;9.79;100.00
13661;BME280;6903;49.480;11.102;2023-03-14T00:37:03;96195.09;;;9.82;100.00
13661;BME280;6903;49.480;11.102;2023-03-14T00:39:28;96207.09;;;9.85;100.00
13661;BME280;6903;49.480;11.102;2023-03-14T00:41:54;96203.78;;;9.83;100.00
13661;BME280;6903;49.480;11.102;2023-03-14T00:44:19;96203.94;;;9.81;100.00
13661;BME280;6903;49.480;11.102;2023-03-14T00:46:44;96210.88;;;9.82;100.00
13661;BME280;6903;49.480;11.102;2023-03-14T00:49:09;96209.06;;;9.83;100.00
13661;BME280;6903;49.480;11.102;2023-03-14T00:51:35;96221.09;;;9.85;100.00
13661;BME280;6903;49.480;11.102;2023-03-14T00:54:00;96232.06;;;9.81;100.00
13661;BME280;6903;49.480;11.102;2023-03-14T00:56:25;96213.81;;;9.79;100.00
13661;BME280;6903;49.480;11.102;2023-03-14T00:58:55;96222.88;;;9.85;100.00
13661;BME280;6903;49.480;11.102;2023-03-14T01:01:21;96224.38;;;9.87;100.00
13661;BME280;6903;49.480;11.102;2023-03-14T01:03:47;96200.69;;;9.87;100.00
13661;BME280;6903;49.480;11.102;2023-03-14T01:06:16;96208.13;;;9.92;100.00
13661;BME280;6903;49.480;11.102;2023-03-14T01:08:42;96198.56;;;9.91;100.00
13661;BME280;6903;49.480;11.102;2023-03-14T01:11:14;96204.66;;;9.91;100.00
13661;BME280;6903;49.480;11.102;2023-03-14T01:13:40;96190.66;;;9.91;100.00
13661;BME280;6903;49.480;11.102;2023-03-14T01:16:08;96165.31;;;9.90;100.00
13661;BME280;6903;49.480;11.102;2023-03-14T01:18:34;96163.53;;;9.90;100.00
13661;BME280;6903;49.480;11.102;2023-03-14T01:21:01;96161.88;;;9.89;100.00
13661;BME280;6903;49.480;11.102;2023-03-14T01:23:27;96181.78;;;9.84;100.00
13661;BME280;6903;49.480;11.102;2023-03-14T01:25:52;96165.47;;;9.80;100.00
13661;BME280;6903;49.480;11.102;2023-03-14T01:28:18;96174.03;;;9.82;100.00
13661;BME280;6903;49.480;11.102;2023-03-14T01:30:43;96162.50;;;9.83;100.00
13661;BME280;6903;49.480;11.102;2023-03-14T01:33:08;96152.81;;;9.84;100.00
13661;BME280;6903;49.480;11.102;2023-03-14T01:35:33;96141.28;;;9.85;100.00
13661;BME280;6903;49.480;11.102;2023-03-14T01:37:59;96144.75;;;9.85;100.00
13661;BME280;6903;49.480;11.102;2023-03-14T01:40:24;96146.72;;;9.83;100.00
13661;BME280;6903;49.480;11.102;2023-03-14T01:42:57;96147.56;;;9.84;100.00
13661;BME280;6903;49.480;11.102;2023-03-14T01:51:56;96158.88;;;9.84;100.00
13661;BME280;6903;49.480;11.102;2023-03-14T01:57:06;96151.34;;;9.89;100.00
13661;BME280;6903;49.480;11.102;2023-03-14T01:59:34;96172.38;;;9.89;100.00
13661;BME280;6903;49.480;11.102;2023-03-14T02:02:00;96181.78;;;9.92;100.00
13661;BME280;6903;49.480;11.102;2023-03-14T02:04:30;96189.53;;;9.93;100.00
13661;BME280;6903;49.480;11.102;2023-03-14T02:07:17;96183.25;;;9.94;100.00
13661;BME280;6903;49.480;11.102;2023-03-14T02:09:44;96184.59;;;9.98;100.00
13661;BME280;6903;49.480;11.102;2023-03-14T02:12:14;96188.72;;;10.01;100.00
13661;BME280;6903;49.480;11.102;2023-03-14T02:14:40;96169.28;;;10.02;100.00
13661;BME280;6903;49.480;11.102;2023-03-14T02:17:07;96170.78;;;10.04;100.00
13661;BME280;6903;49.480;11.102;2023-03-14T02:19:40;96166.81;;;10.00;100.00
13661;BME280;6903;49.480;11.102;2023-03-14T02:22:12;96148.06;;;10.03;100.00
13661;BME280;6903;49.480;11.102;2023-03-14T02:25:07;96140.50;;;10.00;100.00
13661;BME280;6903;49.480;11.102;2023-03-14T02:27:33;96133.59;;;9.99;100.00
13661;BME280;6903;49.480;11.102;2023-03-14T02:30:20;96122.22;;;9.99;100.00
13661;BME280;6903;49.480;11.102;2023-03-14T02:32:48;96131.63;;;10.01;100.00
13661;BME280;6903;49.480;11.102;2023-03-14T02:35:18;96131.63;;;10.01;100.00
13661;BME280;6903;49.480;11.102;2023-03-14T02:37:51;96134.75;;;10.05;100.00
13661;BME280;6903;49.480;11.102;2023-03-14T02:40:17;96134.75;;;10.05;100.00
13661;BME280;6903;49.480;11.102;2023-03-14T02:42:42;96126.03;;;10.04;100.00
13661;BME280;6903;49.480;11.102;2023-03-14T02:47:34;96109.56;;;10.02;100.00
13661;BME280;6903;49.480;11.102;2023-03-14T02:50:07;96116.63;;;10.02;100.00
13661;BME280;6903;49.480;11.102;2023-03-14T02:52:33;96113.34;;;10.00;100.00
13661;BME280;6903;49.480;11.102;2023-03-14T02:54:58;96108.25;;;9.98;100.00
13661;BME280;6903;49.480;11.102;2023-03-14T02:57:24;96104.28;;;9.94;100.00
13661;BME280;6903;49.480;11.102;2023-03-14T02:59:49;96101.66;;;9.94;100.00
13661;BME280;6903;49.480;11.102;2023-03-14T03:02:15;96096.72;;;9.91;100.00
13661;BME280;6903;49.480;11.102;2023-03-14T03:04:40;96091.47;;;9.91;100.00
13661;BME280;6903;49.480;11.102;2023-03-14T03:07:05;96085.53;;;9.89;100.00
13661;BME280;6903;49.480;11.102;2023-03-14T03:09:31;96086.53;;;9.88;100.00
13661;BME280;6903;49.480;11.102;2023-03-14T03:11:56;96099.00;;;9.86;100.00
13661;BME280;6903;49.480;11.102;2023-03-14T03:14:21;96097.84;;;9.81;100.00
13661;BME280;6903;49.480;11.102;2023-03-14T03:16:47;96097.03;;;9.80;100.00
13661;BME280;6903;49.480;11.102;2023-03-14T03:19:12;96101.63;;;9.78;100.00
13661;BME280;6903;49.480;11.102;2023-03-14T03:21:39;96090.28;;;9.78;100.00
13661;BME280;6903;49.480;11.102;2023-03-14T03:24:04;96082.53;;;9.76;100.00
13661;BME280;6903;49.480;11.102;2023-03-14T03:26:29;96086.66;;;9.71;100.00
13661;BME280;6903;49.480;11.102;2023-03-14T03:28:55;96072.34;;;9.73;100.00
13661;BME280;6903;49.480;11.102;2023-03-14T03:31:20;96074.97;;;9.73;100.00
13661;BME280;6903;49.480;11.102;2023-03-14T03:33:45;96074.63;;;9.68;100.00
13661;BME280;6903;49.480;11.102;2023-03-14T03:36:11;96067.75;;;9.67;100.00
13661;BME280;6903;49.480;11.102;2023-03-14T03:38:36;96067.75;;;9.67;100.00
13661;BME280;6903;49.480;11.102;2023-03-14T03:41:04;96070.53;;;9.66;100.00
13661;BME280;6903;49.480;11.102;2023-03-14T03:43:29;96078.44;;;9.66;100.00
13661;BME280;6903;49.480;11.102;2023-03-14T03:45:55;96083.34;;;9.61;100.00
13661;BME280;6903;49.480;11.102;2023-03-14T03:48:20;96079.09;;;9.60;100.00
13661;BME280;6903;49.480;11.102;2023-03-14T03:50:46;96079.88;;;9.60;100.00
13661;BME280;6903;49.480;11.102;2023-03-14T03:53:12;96068.69;;;9.58;100.00
13661;BME280;6903;49.480;11.102;2023-03-14T03:55:37;96072.81;;;9.61;100.00
13661;BME280;6903;49.480;11.102;2023-03-14T03:58:02;96079.72;;;9.62;100.00
13661;BME280;6903;49.480;11.102;2023-03-14T04:00:28;96056.88;;;9.62;100.00
13661;BME280;6903;49.480;11.102;2023-03-14T04:02:53;96058.66;;;9.62;100.00
13661;BME280;6903;49.480;11.102;2023-03-14T04:05:18;96061.31;;;9.62;100.00
13661;BME280;6903;49.480;11.102;2023-03-14T04:07:44;96054.56;;;9.59;100.00
13661;BME280;6903;49.480;11.102;2023-03-14T04:10:09;96045.19;;;9.57;100.00
13661;BME280;6903;49.480;11.102;2023-03-14T04:12:35;96034.50;;;9.58;100.00
13661;BME280;6903;49.480;11.102;2023-03-14T04:15:00;96021.81;;;9.54;100.00
13661;BME280;6903;49.480;11.102;2023-03-14T04:17:25;96022.00;;;9.52;100.00
13661;BME280;6903;49.480;11.102;2023-03-14T04:19:50;96014.09;;;9.52;100.00
13661;BME280;6903;49.480;11.102;2023-03-14T04:22:18;96011.63;;;9.51;100.00
13661;BME280;6903;49.480;11.102;2023-03-14T04:24:43;96020.69;;;9.48;100.00
13661;BME280;6903;49.480;11.102;2023-03-14T04:27:08;96027.06;;;9.46;100.00
13661;BME280;6903;49.480;11.102;2023-03-14T04:29:34;96007.53;;;9.40;100.00
13661;BME280;6903;49.480;11.102;2023-03-14T04:31:59;96012.78;;;9.40;100.00
13661;BME280;6903;49.480;11.102;2023-03-14T04:34:24;96010.31;;;9.39;100.00
13661;BME280;6903;49.480;11.102;2023-03-14T04:36:50;96009.13;;;9.33;100.00
13661;BME280;6903;49.480;11.102;2023-03-14T04:39:15;96016.38;;;9.31;100.00
13661;BME280;6903;49.480;11.102;2023-03-14T04:41:40;96017.69;;;9.27;100.00
13661;BME280;6903;49.480;11.102;2023-03-14T04:44:06;96023.09;;;9.26;100.00
13661;BME280;6903;49.480;11.102;2023-03-14T04:46:31;96023.91;;;9.26;100.00
13661;BME280;6903;49.480;11.102;2023-03-14T04:48:56;96020.63;;;9.24;100.00
13661;BME280;6903;49.480;11.102;2023-03-14T04:51:22;96023.91;;;9.26;100.00
13661;BME280;6903;49.480;11.102;2023-03-14T04:53:48;96018.16;;;9.23;100.00
13661;BME280;6903;49.480;11.102;2023-03-14T04:56:13;96016.81;;;9.19;100.00
13661;BME280;6903;49.480;11.102;2023-03-14T04:58:39;96026.50;;;9.18;100.00
13661;BME280;6903;49.480;11.102;2023-03-14T05:01:05;96024.03;;;9.17;100.00
13661;BME280;6903;49.480;11.102;2023-03-14T05:03:31;96027.50;;;9.17;100.00
13661;BME280;6903;49.480;11.102;2023-03-14T05:05:56;96020.63;;;9.16;100.00
13661;BME280;6903;49.480;11.102;2023-03-14T05:08:23;96020.94;;;9.13;100.00
13661;BME280;6903;49.480;11.102;2023-03-14T05:10:56;96029.47;;;9.15;100.00
13661;BME280;6903;49.480;11.102;2023-03-14T05:13:21;96030.47;;;9.14;100.00
13661;BME280;6903;49.480;11.102;2023-03-14T05:15:47;96018.44;;;9.12;100.00
13661;BME280;6903;49.480;11.102;2023-03-14T05:18:12;96014.03;;;9.12;100.00
13661;BME280;6903;49.480;11.102;2023-03-14T05:20:37;96013.34;;;9.10;100.00
13661;BME280;6903;49.480;11.102;2023-03-14T05:23:03;96009.41;;;9.06;100.00
13661;BME280;6903;49.480;11.102;2023-03-14T05:25:28;96003.47;;;9.04;100.00
13661;BME280;6903;49.480;11.102;2023-03-14T05:27:54;96009.72;;;9.03;100.00
13661;BME280;6903;49.480;11.102;2023-03-14T05:30:20;96010.69;;;9.02;100.00
13661;BME280;6903;49.480;11.102;2023-03-14T05:32:46;96003.13;;;8.99;100.00
13661;BME280;6903;49.480;11.102;2023-03-14T05:35:12;95993.97;;;9.03;100.00
13661;BME280;6903;49.480;11.102;2023-03-14T05:37:37;95985.56;;;9.00;100.00
13661;BME280;6903;49.480;11.102;2023-03-14T05:40:03;95987.38;;;8.99;100.00
13661;BME280;6903;49.480;11.102;2023-03-14T05:42:31;95987.38;;;8.99;100.00
13661;BME280;6903;49.480;11.102;2023-03-14T05:44:57;95979.47;;;8.99;100.00
13661;BME280;6903;49.480;11.102;2023-03-14T05:47:22;95975.56;;;9.03;100.00
13661;BME280;6903;49.480;11.102;2023-03-14T05:49:47;95965.72;;;9.05;100.00
13661;BME280;6903;49.480;11.102;2023-03-14T05:52:13;95975.41;;;9.05;100.00
13661;BME280;6903;49.480;11.102;2023-03-14T05:54:39;95977.88;;;9.06;100.00
13661;BME280;6903;49.480;11.102;2023-03-14T05:57:04;95967.34;;;9.06;100.00
13661;BME280;6903;49.480;11.102;2023-03-14T05:59:29;95967.03;;;9.09;100.00
13661;BME280;6903;49.480;11.102;2023-03-14T06:01:55;95970.00;;;9.14;100.00
13661;BME280;6903;49.480;11.102;2023-03-14T06:04:20;95975.25;;;9.14;100.00
13661;BME280;6903;49.480;11.102;2023-03-14T06:06:45;95973.28;;;9.16;100.00
13661;BME280;6903;49.480;11.102;2023-03-14T06:09:11;95979.03;;;9.20;100.00
13661;BME280;6903;49.480;11.102;2023-03-14T06:11:36;95974.44;;;9.22;100.00
13661;BME280;6903;49.480;11.102;2023-03-14T06:14:01;95974.59;;;9.20;100.00
13661;BME280;6903;49.480;11.102;2023-03-14T06:16:26;95967.53;;;9.21;100.00
13661;BME280;6903;49.480;11.102;2023-03-14T06:18:52;95977.06;;;9.22;100.00
13661;BME280;6903;49.480;11.102;2023-03-14T06:21:18;95982.00;;;9.25;100.00
13661;BME280;6903;49.480;11.102;2023-03-14T06:23:44;95984.00;;;9.23;100.00
13661;BME280;6903;49.480;11.102;2023-03-14T06:26:10;95974.09;;;9.25;100.00
13661;BME280;6903;49.480;11.102;2023-03-14T06:28:37;95964.75;;;9.30;100.00
13661;BME280;6903;49.480;11.102;2023-03-14T06:31:02;95968.56;;;9.36;100.00
13661;BME280;6903;49.480;11.102;2023-03-14T06:33:28;95969.69;;;9.41;100.00
13661;BME280;6903;49.480;11.102;2023-03-14T06:35:53;95967.41;;;9.46;100.00
13661;BME280;6903;49.480;11.102;2023-03-14T06:38:18;95972.69;;;9.54;100.00
13661;BME280;6903;49.480;11.102;2023-03-14T06:40:44;95975.66;;;9.59;100.00
13661;BME280;6903;49.480;11.102;2023-03-14T06:43:09;95967.25;;;9.64;100.00
13661;BME280;6903;49.480;11.102;2023-03-14T06:45:35;95968.41;;;9.69;100.00
13661;BME280;6903;49.480;11.102;2023-03-14T06:48:00;95969.88;;;9.72;100.00
13661;BME280;6903;49.480;11.102;2023-03-14T06:50:25;95969.22;;;9.78;100.00
13661;BME280;6903;49.480;11.102;2023-03-14T06:52:50;95968.09;;;9.80;100.00
13661;BME280;6903;49.480;11.102;2023-03-14T06:55:16;95974.81;;;9.83;100.00
13661;BME280;6903;49.480;11.102;2023-03-14T06:57:41;95990.09;;;9.87;100.00
13661;BME280;6903;49.480;11.102;2023-03-14T07:00:10;95987.63;;;9.94;100.00
13661;BME280;6903;49.480;11.102;2023-03-14T07:02:35;95987.00;;;10.00;100.00
13661;BME280;6903;49.480;11.102;2023-03-14T07:05:01;95988.13;;;10.05;100.00
13661;BME280;6903;49.480;11.102;2023-03-14T07:07:27;95993.41;;;10.14;100.00
13661;BME280;6903;49.480;11.102;2023-03-14T07:09:52;95993.75;;;10.19;100.00
13661;BME280;6903;49.480;11.102;2023-03-14T07:12:17;95993.56;;;10.28;100.00
13661;BME280;6903;49.480;11.102;2023-03-14T07:14:42;95984.97;;;10.34;100.00
13661;BME280;6903;49.480;11.102;2023-03-14T07:17:08;95983.84;;;10.37;100.00
13661;BME280;6903;49.480;11.102;2023-03-14T07:19:33;95982.81;;;10.38;100.00
13661;BME280;6903;49.480;11.102;2023-03-14T07:21:58;95988.25;;;10.44;100.00
13661;BME280;6903;49.480;11.102;2023-03-14T07:24:24;95987.59;;;10.42;100.00
13661;BME280;6903;49.480;11.102;2023-03-14T07:26:49;95985.63;;;10.44;100.00
13661;BME280;6903;49.480;11.102;2023-03-14T07:29:14;95977.19;;;10.49;100.00
13661;BME280;6903;49.480;11.102;2023-03-14T07:31:40;95978.50;;;10.53;100.00
13661;BME280;6903;49.480;11.102;2023-03-14T07:34:05;95979.78;;;10.65;100.00
13661;BME280;6903;49.480;11.102;2023-03-14T07:36:30;95979.09;;;10.79;100.00
13661;BME280;6903;49.480;11.102;2023-03-14T07:38:55;95984.31;;;10.87;100.00
13661;BME280;6903;49.480;11.102;2023-03-14T07:41:21;95974.72;;;10.94;100.00
13661;BME280;6903;49.480;11.102;2023-03-14T07:43:48;95977.66;;;10.99;100.00
13661;BME280;6903;49.480;11.102;2023-03-14T07:46:13;95974.19;;;11.06;100.00
13661;BME280;6903;49.480;11.102;2023-03-14T07:48:39;95978.28;;;11.09;100.00
13661;BME280;6903;49.480;11.102;2023-03-14T07:51:05;95978.75;;;11.12;100.00
13661;BME280;6903;49.480;11.102;2023-03-14T07:53:30;95985.97;;;11.18;100.00
13661;BME280;6903;49.480;11.102;2023-03-14T07:55:56;95985.75;;;11.28;100.00
13661;BME280;6903;49.480;11.102;2023-03-14T07:58:22;95988.63;;;11.41;100.00
13661;BME280;6903;49.480;11.102;2023-03-14T08:00:48;95991.06;;;11.51;100.00
13661;BME280;6903;49.480;11.102;2023-03-14T08:03:13;95985.59;;;11.52;100.00
13661;BME280;6903;49.480;11.102;2023-03-14T08:05:39;95988.94;;;11.46;100.00
13661;BME280;6903;49.480;11.102;2023-03-14T08:08:05;95996.84;;;11.46;100.00
13661;BME280;6903;49.480;11.102;2023-03-14T08:10:31;95992.19;;;11.56;100.00
13661;BME280;6903;49.480;11.102;2023-03-14T08:12:58;95998.41;;;11.63;100.00
13661;BME280;6903;49.480;11.102;2023-03-14T08:15:24;95992.56;;;11.76;100.00
13661;BME280;6903;49.480;11.102;2023-03-14T08:17:50;95990.16;;;11.89;100.00
13661;BME280;6903;49.480;11.102;2023-03-14T08:20:17;95998.75;;;12.05;100.00
13661;BME280;6903;49.480;11.102;2023-03-14T08:22:43;95977.66;;;12.20;100.00
13661;BME280;6903;49.480;11.102;2023-03-14T08:25:08;95975.03;;;12.34;100.00
13661;BME280;6903;49.480;11.102;2023-03-14T08:27:34;95970.88;;;12.54;100.00
13661;BME280;6903;49.480;11.102;2023-03-14T08:29:59;95968.03;;;12.70;100.00
13661;BME280;6903;49.480;11.102;2023-03-14T08:32:24;95976.16;;;12.83;100.00
13661;BME280;6903;49.480;11.102;2023-03-14T08:34:50;95961.53;;;12.88;100.00
13661;BME280;6903;49.480;11.102;2023-03-14T08:37:15;95963.63;;;13.07;100.00
13661;BME280;6903;49.480;11.102;2023-03-14T08:39:40;95961.53;;;13.17;100.00
13661;BME280;6903;49.480;11.102;2023-03-14T08:42:06;95957.09;;;13.38;100.00
13661;BME280;6903;49.480;11.102;2023-03-14T08:44:31;95965.66;;;13.61;100.00
13661;BME280;6903;49.480;11.102;2023-03-14T08:46:56;95954.75;;;13.92;100.00
13661;BME280;6903;49.480;11.102;2023-03-14T08:49:22;95956.38;;;14.14;100.00
13661;BME280;6903;49.480;11.102;2023-03-14T08:51:47;95951.22;;;14.27;100.00
13661;BME280;6903;49.480;11.102;2023-03-14T08:54:12;95949.44;;;14.41;100.00
13661;BME280;6903;49.480;11.102;2023-03-14T08:56:38;95951.69;;;14.71;100.00
13661;BME280;6903;49.480;11.102;2023-03-14T08:59:03;95953.66;;;14.97;100.00
13661;BME280;6903;49.480;11.102;2023-03-14T09:01:29;95947.78;;;15.14;100.00
13661;BME280;6903;49.480;11.102;2023-03-14T09:03:55;95947.84;;;15.27;100.00
13661;BME280;6903;49.480;11.102;2023-03-14T09:06:20;95943.56;;;15.26;100.00
13661;BME280;6903;49.480;11.102;2023-03-14T09:08:45;95949.53;;;15.35;100.00
13661;BME280;6903;49.480;11.102;2023-03-14T09:11:11;95947.50;;;15.43;100.00
13661;BME280;6903;49.480;11.102;2023-03-14T09:13:36;95947.03;;;15.33;100.00
13661;BME280;6903;49.480;11.102;2023-03-14T09:16:02;95939.25;;;15.12;100.00
13661;BME280;6903;49.480;11.102;2023-03-14T09:18:28;95934.56;;;15.27;100.00
13661;BME280;6903;49.480;11.102;2023-03-14T09:20:55;95939.38;;;15.51;100.00
13661;BME280;6903;49.480;11.102;2023-03-14T09:23:20;95940.06;;;15.93;100.00
13661;BME280;6903;49.480;11.102;2023-03-14T09:25:45;95941.91;;;16.18;100.00
13661;BME280;6903;49.480;11.102;2023-03-14T09:28:11;95927.78;;;16.50;100.00
13661;BME280;6903;49.480;11.102;2023-03-14T09:30:36;95929.53;;;16.89;100.00
13661;BME280;6903;49.480;11.102;2023-03-14T09:33:01;95935.75;;;17.21;100.00
13661;BME280;6903;49.480;11.102;2023-03-14T09:35:27;95932.16;;;17.46;100.00
13661;BME280;6903;49.480;11.102;2023-03-14T09:37:52;95937.22;;;17.54;100.00
13661;BME280;6903;49.480;11.102;2023-03-14T09:40:19;95927.22;;;17.43;100.00
13661;BME280;6903;49.480;11.102;2023-03-14T09:42:47;95940.16;;;17.46;100.00
13661;BME280;6903;49.480;11.102;2023-03-14T09:45:39;95933.81;;;17.47;100.00
13661;BME280;6903;49.480;11.102;2023-03-14T09:48:06;95944.50;;;17.34;100.00
13661;BME280;6903;49.480;11.102;2023-03-14T09:50:41;95935.56;;;17.09;100.00
13661;BME280;6903;49.480;11.102;2023-03-14T09:53:14;95922.50;;;17.01;100.00
13661;BME280;6903;49.480;11.102;2023-03-14T09:55:42;95925.81;;;16.90;100.00
13661;BME280;6903;49.480;11.102;2023-03-14T09:58:18;95943.06;;;16.74;100.00
13661;BME280;6903;49.480;11.102;2023-03-14T10:00:44;95936.94;;;16.67;100.00
13661;BME280;6903;49.480;11.102;2023-03-14T10:05:38;95925.72;;;16.33;100.00
13661;BME280;6903;49.480;11.102;2023-03-14T10:08:04;95934.34;;;16.15;100.00
13661;BME280;6903;49.480;11.102;2023-03-14T10:10:29;95925.13;;;15.98;100.00
13661;BME280;6903;49.480;11.102;2023-03-14T10:15:39;95926.97;;;16.11;100.00
13661;BME280;6903;49.480;11.102;2023-03-14T10:18:11;95924.50;;;16.22;100.00
13661;BME280;6903;49.480;11.102;2023-03-14T10:20:42;95920.00;;;16.29;100.00
13661;BME280;6903;49.480;11.102;2023-03-14T10:25:41;95907.75;;;16.22;100.00
13661;BME280;6903;49.480;11.102;2023-03-14T10:28:28;95912.44;;;16.07;100.00
13661;BME280;6903;49.480;11.102;2023-03-14T10:30:55;95904.06;;;15.97;100.00
13661;BME280;6903;49.480;11.102;2023-03-14T10:36:36;95917.53;;;15.76;100.00
13661;BME280;6903;49.480;11.102;2023-03-14T10:38:42;95897.31;;;15.81;100.00
13661;BME280;6903;49.480;11.102;2023-03-14T10:41:23;95903.84;;;15.92;100.00
13661;BME280;6903;49.480;11.102;2023-03-14T10:43:50;95908.56;;;15.90;100.00
13661;BME280;6903;49.480;11.102;2023-03-14T10:46:17;95907.53;;;15.91;100.00
13661;BME280;6903;49.480;11.102;2023-03-14T10:48:43;95908.38;;;15.91;100.00
13661;BME280;6903;49.480;11.102;2023-03-14T10:51:12;95908.56;;;15.90;100.00
13661;BME280;6903;49.480;11.102;2023-03-14T10:53:46;95904.22;;;15.63;100.00
13661;BME280;6903;49.480;11.102;2023-03-14T10:56:18;95916.47;;;15.44;100.00
13661;BME280;6903;49.480;11.102;2023-03-14T10:58:49;95917.00;;;15.26;100.00
13661;BME280;6903;49.480;11.102;2023-03-14T11:03:54;95916.34;;;15.11;100.00
13661;BME280;6903;49.480;11.102;2023-03-14T11:09:22;95929.13;;;14.88;100.00
13661;BME280;6903;49.480;11.102;2023-03-14T11:11:53;95929.84;;;14.69;100.00
13661;BME280;6903;49.480;11.102;2023-03-14T11:14:34;95930.53;;;14.50;100.00
13661;BME280;6903;49.480;11.102;2023-03-14T11:17:17;95935.53;;;14.11;100.00
13661;BME280;6903;49.480;11.102;2023-03-14T11:22:41;95941.44;;;13.64;100.00
13661;BME280;6903;49.480;11.102;2023-03-14T11:25:14;95929.44;;;13.62;100.00
13661;BME280;6903;49.480;11.102;2023-03-14T11:27:47;95930.06;;;13.64;100.00
13661;BME280;6903;49.480;11.102;2023-03-14T11:30:34;95944.16;;;13.71;100.00
13661;BME280;6903;49.480;11.102;2023-03-14T11:33:18;95932.31;;;13.46;100.00
13661;BME280;6903;49.480;11.102;2023-03-14T11:36:10;95921.41;;;13.34;100.00
13661;BME280;6903;49.480;11.102;2023-03-14T11:38:49;95922.81;;;13.51;100.00
13661;BME280;6903;49.480;11.102;2023-03-14T11:43:54;95909.72;;;13.92;100.00
13661;BME280;6903;49.480;11.102;2023-03-14T11:46:33;95910.53;;;14.20;100.00
13661;BME280;6903;49.480;11.102;2023-03-14T11:52:14;95890.72;;;14.44;100.00
13661;BME280;6903;49.480;11.102;2023-03-14T11:54:50;95890.09;;;14.82;100.00
13661;BME280;6903;49.480;11.102;2023-03-14T11:57:19;95892.72;;;15.29;100.00
13661;BME280;6903;49.480;11.102;2023-03-14T12:05:22;95894.84;;;15.67;100.00
13661;BME280;6903;49.480;11.102;2023-03-14T12:10:45;95886.47;;;16.22;100.00
13661;BME280;6903;49.480;11.102;2023-03-14T12:13:13;95880.28;;;16.41;100.00
13661;BME280;6903;49.480;11.102;2023-03-14T12:15:41;95887.81;;;16.70;100.00
13661;BME280;6903;49.480;11.102;2023-03-14T12:18:27;95876.63;;;17.06;100.00
13661;BME280;6903;49.480;11.102;2023-03-14T12:20:58;95879.53;;;17.35;100.00
13661;BME280;6903;49.480;11.102;2023-03-14T12:23:25;95879.78;;;17.65;100.00
13661;BME280;6903;49.480;11.102;2023-03-14T12:26:28;95866.38;;;17.40;97.73
13661;BME280;6903;49.480;11.102;2023-03-14T12:29:17;95865.38;;;17.04;99.83
13661;BME280;6903;49.480;11.102;2023-03-14T12:31:45;95873.81;;;16.94;100.00
13661;BME280;6903;49.480;11.102;2023-03-14T12:39:24;95857.69;;;16.76;97.27
13661;BME280;6903;49.480;11.102;2023-03-14T12:42:01;95852.34;;;16.82;97.14
13661;BME280;6903;49.480;11.102;2023-03-14T12:46:59;95846.72;;;17.04;95.43
13661;BME280;6903;49.480;11.102;2023-03-14T12:49:30;95842.38;;;17.09;91.48
13661;BME280;6903;49.480;11.102;2023-03-14T12:52:00;95848.72;;;17.15;91.34
13661;BME280;6903;49.480;11.102;2023-03-14T12:57:13;95847.66;;;16.78;90.30
13661;BME280;6903;49.480;11.102;2023-03-14T12:59:55;95849.41;;;16.46;93.06
13661;BME280;6903;49.480;11.102;2023-03-14T13:02:25;95862.53;;;16.15;94.43
13661;BME280;6903;49.480;11.102;2023-03-14T13:10:00;95897.28;;;14.95;100.00
13661;BME280;6903;49.480;11.102;2023-03-14T13:12:29;95900.88;;;14.74;100.00
13661;BME280;6903;49.480;11.102;2023-03-14T13:14:58;95893.41;;;14.50;100.00
13661;BME280;6903;49.480;11.102;2023-03-14T13:17:31;95904.50;;;14.26;100.00
13661;BME280;6903;49.480;11.102;2023-03-14T13:20:00;95906.78;;;14.08;100.00
13661;BME280;6903;49.480;11.102;2023-03-14T13:22:31;95914.75;;;13.87;100.00
13661;BME280;6903;49.480;11.102;2023-03-14T13:25:04;95918.06;;;13.47;100.00
13661;BME280;6903;49.480;11.102;2023-03-14T13:27:32;95922.59;;;13.11;100.00
13661;BME280;6903;49.480;11.102;2023-03-14T13:29:58;95932.19;;;12.68;100.00
13661;BME280;6903;49.480;11.102;2023-03-14T13:32:28;95931.84;;;12.27;100.00
13661;BME280;6903;49.480;11.102;2023-03-14T13:34:59;95936.41;;;11.82;100.00
13661;BME280;6903;49.480;11.102;2023-03-14T13:37:25;95947.66;;;11.53;100.00
13661;BME280;6903;49.480;11.102;2023-03-14T13:39:56;95948.81;;;11.28;100.00
13661;BME280;6903;49.480;11.102;2023-03-14T13:42:26;95948.63;;;11.07;100.00
13661;BME280;6903;49.480;11.102;2023-03-14T13:44:54;95962.53;;;10.93;100.00
13661;BME280;6903;49.480;11.102;2023-03-14T13:47:23;95965.75;;;10.80;100.00
13661;BME280;6903;49.480;11.102;2023-03-14T13:49:49;95962.63;;;10.77;100.00
13661;BME280;6903;49.480;11.102;2023-03-14T13:54:47;95974.16;;;10.76;100.00
13661;BME280;6903;49.480;11.102;2023-03-14T13:57:12;95976.31;;;10.72;100.00
13661;BME280;6903;49.480;11.102;2023-03-14T13:59:37;95973.53;;;10.66;100.00